Time;durP1;ratioP1;P1;durP2;ratioP2;P2;SDS_P1;SDS_P2;PMS_P1;PMS_P2;Temp;Humidity;BMP_temperature;BMP_pressure;BME280_temperature;BME280_humidity;BME280_pressure;Samples;Min_cycle;Max_cycle;Signal;HPM_P1;HPM_P2
2022/05/21 00:00:15;;;;;;;;;;;;;;;10.02;46.22;98978.84;5031073;28;20037;-77
2022/05/21 00:02:41;;;;;;;5.80;2.60;;;;;;;9.93;46.71;98966.84;5033250;28;19917;-77
2022/05/21 00:05:07;;;;;;;;;;;;;;;9.88;46.72;98974.69;5031077;28;20041;-77
2022/05/21 00:07:32;;;;;;;4.47;2.40;;;;;;;9.73;47.01;98971.44;5031929;28;19924;-77
2022/05/21 00:09:58;;;;;;;;;;;;;;;9.86;47.32;98973.00;5032186;28;20037;-77
2022/05/21 00:12:24;;;;;;;7.05;2.78;;;;;;;9.68;47.33;98967.16;5033138;28;20401;-77
2022/05/21 00:14:52;;;;;;;;;;;;;;;9.80;47.40;98968.72;4994786;28;20069;-77
2022/05/21 00:17:17;;;;;;;8.07;2.58;;;;;;;9.58;47.49;98960.38;5026930;28;19921;-76
2022/05/21 00:19:43;;;;;;;;;;;;;;;9.47;48.90;98954.44;5029136;28;20373;-76
2022/05/21 00:22:09;;;;;;;5.65;2.92;;;;;;;9.44;48.08;98946.72;5031498;28;19917;-77
2022/05/21 00:24:34;;;;;;;;;;;;;;;9.55;48.37;98952.63;5013971;28;20037;-77
2022/05/21 00:27:00;;;;;;;9.23;2.80;;;;;;;9.59;47.58;98951.72;5031583;28;19971;-77
2022/05/21 00:29:27;;;;;;;;;;;;;;;9.72;47.67;98955.03;5031643;28;20029;-77
2022/05/21 00:31:54;;;;;;;6.20;2.45;;;;;;;9.54;48.18;98940.56;5023894;28;19926;-76
2022/05/21 00:34:19;;;;;;;4.03;2.75;;;;;;;9.46;48.38;98947.56;5022870;28;20061;-77
2022/05/21 00:36:45;;;;;;;;;;;;;;;9.49;48.56;98937.19;5029729;28;20045;-77
2022/05/21 00:39:11;;;;;;;11.00;2.97;;;;;;;9.42;48.48;98940.69;5029814;28;19921;-77
2022/05/21 00:41:36;;;;;;;4.45;2.72;;;;;;;9.39;48.67;98939.03;5029884;28;20037;-77
2022/05/21 00:44:03;;;;;;;;;;;;;;;9.42;48.87;98940.69;5030266;28;20037;-77
2022/05/21 00:46:33;;;;;;;7.60;3.20;;;;;;;9.37;48.62;98938.16;5031010;28;20319;-76
2022/05/21 00:49:27;;;;;;;4.45;2.67;;;;;;;9.41;49.08;98933.81;5031131;28;20381;-77
2022/05/21 00:52:17;;;;;;;6.65;2.90;;;;;;;9.32;49.41;98931.31;5029363;28;20041;-78
2022/05/21 00:54:45;;;;;;;4.75;3.13;;;;;;;9.22;49.21;98927.97;5029940;28;20042;-78
2022/05/21 00:57:16;;;;;;;5.47;3.03;;;;;;;9.15;49.66;98924.59;5013558;28;20116;-76
2022/05/21 00:59:48;;;;;;;6.32;3.03;;;;;;;9.15;49.83;98931.50;5029813;28;20044;-77
2022/05/21 01:02:15;;;;;;;5.45;2.65;;;;;;;9.14;49.36;98927.19;5029842;28;20492;-78
2022/05/21 01:04:42;;;;;;;8.02;3.00;;;;;;;9.18;49.53;98925.44;5029868;28;20480;-77
2022/05/21 01:07:08;;;;;;;5.57;2.88;;;;;;;9.27;48.79;98922.75;4997622;28;20042;-78
2022/05/21 01:09:34;;;;;;;;;;;;;;;9.32;48.76;98928.75;5031612;28;20513;-77
2022/05/21 01:12:01;;;;;;;7.47;2.60;;;;;;;9.19;48.12;98921.97;5029892;28;19921;-77
2022/05/21 01:14:27;;;;;;;5.95;2.65;;;;;;;9.12;48.47;98918.59;5026361;28;20426;-77
2022/05/21 01:16:52;;;;;;;;;;;;;;;9.19;48.95;98917.66;5023432;28;20045;-78
2022/05/21 01:19:18;;;;;;;5.00;2.60;;;;;;;9.01;49.02;98910.06;5015844;28;19912;-77
2022/05/21 01:21:44;;;;;;;4.80;2.50;;;;;;;8.96;49.01;98907.53;5029703;28;20472;-77
2022/05/21 01:24:10;;;;;;;;;;;;;;;9.08;49.07;98907.41;5031902;28;20029;-77
2022/05/21 01:26:37;;;;;;;5.28;2.60;;;;;;;9.07;48.70;98907.41;5007109;28;19917;-78
2022/05/21 01:29:04;;;;;;;5.25;2.63;;;;;;;9.13;48.59;98917.72;5022348;28;20041;-77
2022/05/21 01:31:32;;;;;;;6.75;2.40;;;;;;;9.13;48.93;98912.56;5029523;28;20051;-77
2022/05/21 01:33:59;;;;;;;4.47;2.67;;;;;;;9.05;48.91;98899.69;5031264;28;20039;-77
2022/05/21 01:36:24;;;;;;;4.68;2.28;;;;;;;9.05;48.62;98901.41;5030802;28;20033;-78
2022/05/21 01:38:50;;;;;;;;;;;;;;;9.16;48.52;98907.31;5031112;28;20400;-77
2022/05/21 01:41:15;;;;;;;4.88;2.22;;;;;;;9.13;48.04;98899.63;5044118;28;19921;-78
2022/05/21 01:46:25;;;;;;;5.53;3.40;;;;;;;9.03;48.58;98896.28;5023195;28;20037;-78
2022/05/21 01:48:51;;;;;;;;;;;;;;;9.15;48.46;98905.63;5029861;28;20083;-77
2022/05/21 01:51:17;;;;;;;5.53;2.33;;;;;;;9.12;47.96;98900.50;5029154;28;19929;-77
2022/05/21 01:53:42;;;;;;;;;;;;;;;9.20;47.89;98902.97;5030789;28;20065;-76
2022/05/21 01:56:08;;;;;;;3.70;2.25;;;;;;;9.07;47.89;98900.53;5030282;28;19923;-76
2022/05/21 01:58:34;;;;;;;3.80;2.30;;;;;;;9.00;47.90;98892.84;5012759;28;20036;-76
2022/05/21 02:01:00;;;;;;;;;;;;;;;9.09;48.36;98897.94;5031096;28;20033;-77
2022/05/21 02:03:25;;;;;;;8.77;2.78;;;;;;;9.18;47.88;98904.75;5030758;28;19952;-78
2022/05/21 02:05:51;;;;;;;6.93;2.20;;;;;;;9.16;47.83;98897.84;5032645;28;20037;-77
2022/05/21 02:08:17;;;;;;;;;;;;;;;9.24;47.88;98902.06;5033691;28;20037;-76
2022/05/21 02:10:43;;;;;;;5.07;2.20;;;;;;;9.25;47.42;98893.44;5033967;28;19943;-77
2022/05/21 02:13:35;;;;;;;;;;;;;;;9.34;47.02;98896.78;5034734;28;20488;-77
2022/05/21 02:16:01;;;;;;;7.18;2.47;;;;;;;9.30;47.17;98886.47;5032745;28;20368;-78
2022/05/21 02:18:27;;;;;;;;;;;;;;;9.28;47.81;98896.00;5032849;28;20132;-76
2022/05/21 02:20:52;;;;;;;4.07;2.45;;;;;;;9.23;47.02;98888.28;5016103;28;19921;-78
2022/05/21 02:23:18;;;;;;;;;;;;;;;9.25;47.84;98896.88;5016812;28;20044;-77
2022/05/21 02:25:44;;;;;;;7.43;2.50;;;;;;;9.13;47.52;98890.13;5012724;28;19924;-77
2022/05/21 02:28:09;;;;;;;4.80;2.50;;;;;;;9.16;47.09;98897.84;4995670;28;20040;-78
2022/05/21 02:30:35;;;;;;;;;;;;;;;9.21;47.41;98904.69;5025068;28;20045;-77
2022/05/21 02:33:01;;;;;;;3.83;2.40;;;;;;;9.18;46.40;98886.63;5033347;28;19912;-78
2022/05/21 02:35:26;;;;;;;;;;;;;;;9.25;46.48;98891.69;5032709;28;20037;-77
2022/05/21 02:40:36;;;;;;;5.40;2.38;;;;;;;9.31;46.67;98886.47;5012431;28;20050;-77
2022/05/21 02:43:01;;;;;;;;;;;;;;;9.32;46.43;98893.34;5029130;28;20037;-76
2022/05/21 02:45:27;;;;;;;5.05;2.28;;;;;;;9.33;46.84;98883.84;5019635;28;19929;-77
2022/05/21 02:47:53;;;;;;;;;;;;;;;9.45;46.54;98886.31;4994657;28;20072;-78
2022/05/21 02:50:21;;;;;;;4.85;2.55;;;;;;;9.43;46.60;98886.31;5026163;28;20010;-77
2022/05/21 02:52:47;;;;;;;14.18;4.03;;;;;;;9.47;46.21;98881.97;5032032;28;20056;-77
2022/05/21 02:55:13;;;;;;;;;;;;;;;9.58;46.55;98880.13;5033533;28;20064;-76
2022/05/21 02:57:38;;;;;;;7.18;2.20;;;;;;;9.60;45.78;98880.09;5015478;28;20016;-77
2022/05/21 03:00:07;;;;;;;4.88;2.33;;;;;;;9.62;45.92;98878.31;5015533;28;20033;-77
2022/05/21 03:02:33;;;;;;;6.55;2.38;;;;;;;9.70;46.32;98880.81;5032158;28;20171;-77
2022/05/21 03:04:58;;;;;;;;;;;;;;;9.78;45.82;98885.03;5015885;28;20042;-77
2022/05/21 03:07:24;;;;;;;4.18;2.30;;;;;;;9.77;45.74;98882.47;5015377;28;19963;-76
2022/05/21 03:12:35;;;;;;;5.03;2.25;;;;;;;9.61;46.65;98890.41;5032835;28;20103;-77
2022/05/21 03:15:00;;;;;;;;;;;;;;;9.69;46.45;98892.91;5031727;28;20037;-77
2022/05/21 03:17:28;;;;;;;3.70;2.25;;;;;;;9.70;46.57;98888.59;5031223;28;20391;-77
2022/05/21 03:19:53;;;;;;;;;;;;;;;9.83;46.38;98890.13;5015458;28;20047;-76
2022/05/21 03:22:20;;;;;;;4.00;2.45;;;;;;;9.85;45.92;98891.84;5031636;28;20377;-77
2022/05/21 03:24:45;;;;;;;;;;;;;;;9.97;46.45;98895.97;5033274;28;20041;-76
2022/05/21 03:27:11;;;;;;;12.10;2.70;;;;;;;9.96;46.05;98891.69;5032483;28;20410;-77
2022/05/21 03:29:37;;;;;;;;;;;;;;;10.03;45.79;98882.94;5015408;28;20447;-77
2022/05/21 03:32:04;;;;;;;6.00;2.40;;;;;;;9.94;46.12;98888.25;5031226;28;19921;-77
2022/05/21 03:34:30;;;;;;;7.97;2.67;;;;;;;9.91;46.01;98886.56;5031654;28;20103;-78
2022/05/21 03:36:55;;;;;;;;;;;;;;;9.98;46.43;98889.91;5011787;28;20042;-77
2022/05/21 03:39:21;;;;;;;6.97;2.60;;;;;;;10.03;45.54;98885.53;5041599;28;19921;-77
2022/05/21 03:41:47;;;;;;;6.60;2.30;;;;;;;9.97;45.85;98880.44;5028317;28;20042;-76
2022/05/21 03:44:13;;;;;;;7.18;2.60;;;;;;;9.97;45.79;98877.00;5031406;28;20046;-77
2022/05/21 03:46:39;;;;;;;;;;;;;;;10.10;45.81;98876.81;5032413;28;20045;-77
2022/05/21 03:49:05;;;;;;;5.18;3.15;;;;;;;10.08;45.40;98875.97;5032112;28;20350;-77
2022/05/21 03:51:31;;;;;;;4.65;2.40;;;;;;;10.06;45.02;98876.88;5014518;28;20056;-78
2022/05/21 03:53:56;;;;;;;;;;;;;;;10.12;45.19;98869.84;5031103;28;20524;-78
2022/05/21 03:56:22;;;;;;;6.50;2.20;;;;;;;10.04;44.92;98874.31;5014416;28;20016;-78
2022/05/21 03:58:48;;;;;;;5.03;2.13;;;;;;;10.04;44.86;98870.88;5030476;28;20030;-77
2022/05/21 04:01:13;;;;;;;;;;;;;;;10.18;45.46;98885.31;4999179;28;20100;-77
2022/05/21 04:03:40;;;;;;;5.80;2.35;;;;;;;10.02;45.42;98880.38;5023953;28;20012;-76
2022/05/21 04:06:05;;;;;;;5.97;2.20;;;;;;;9.97;45.09;98877.00;5030471;28;20044;-76
2022/05/21 04:08:32;;;;;;;4.80;2.63;;;;;;;10.02;45.34;98882.97;5031517;28;20082;-77
2022/05/21 04:10:59;;;;;;;6.85;2.45;;;;;;;10.04;45.33;98876.91;5031072;28;20042;-77
2022/05/21 04:13:26;;;;;;;;;;;;;;;10.16;44.93;98884.47;4998261;28;20029;-77
2022/05/21 04:15:51;;;;;;;5.25;2.35;;;;;;;10.13;44.74;98881.09;5031911;28;19991;-78
2022/05/21 04:18:18;;;;;;;5.28;2.03;;;;;;;10.16;45.03;98868.91;5031489;28;20107;-78
2022/05/21 04:20:43;;;;;;;5.70;2.45;;;;;;;10.27;45.10;98874.00;5031717;28;20060;-77
2022/05/21 04:23:09;;;;;;;;;;;;;;;10.37;44.47;98861.75;5031899;28;20025;-77
2022/05/21 04:25:34;;;;;;;3.63;1.85;;;;;;;10.41;44.63;98863.41;5030255;28;19916;-77
2022/05/21 04:28:00;;;;;;;;;;;;;;;10.43;44.98;98856.44;5013764;28;20037;-77
2022/05/21 04:30:28;;;;;;;3.78;2.20;;;;;;;10.33;44.76;98849.69;5030245;28;19917;-78
2022/05/21 04:32:54;;;;;;;6.13;2.28;;;;;;;10.33;45.56;98835.00;5030323;28;20115;-78
2022/05/21 04:35:20;;;;;;;10.55;5.43;;;;;;;10.54;45.12;98840.72;5014078;28;20419;-78
2022/05/21 04:37:46;;;;;;;;;;;;;;;10.62;44.80;98842.28;5031789;28;20033;-77
2022/05/21 04:40:15;;;;;;;6.53;3.17;;;;;;;10.59;45.33;98842.34;5026232;28;19975;-78
2022/05/21 04:42:40;;;;;;;4.38;1.88;;;;;;;10.76;43.97;98828.22;5001032;28;20046;-76
2022/05/21 04:45:06;;;;;;;;;;;;;;;10.92;44.84;98833.09;5027898;28;20060;-77
2022/05/21 04:47:32;;;;;;;3.53;1.83;;;;;;;11.01;44.46;98829.47;5038280;28;20031;-77
2022/05/21 04:49:57;;;;;;;;;;;;;;;11.06;44.39;98830.25;5025036;28;20561;-77
2022/05/21 04:52:23;;;;;;;5.47;2.20;;;;;;;11.03;43.97;98835.47;5029905;28;20003;-77
2022/05/21 04:54:49;;;;;;;;;;;;;;;11.11;44.54;98831.00;5030463;28;20037;-77
2022/05/21 04:57:14;;;;;;;3.72;1.88;;;;;;;11.10;44.17;98836.25;5031182;28;20019;-78
2022/05/21 04:59:40;;;;;;;;;;;;;;;11.24;44.23;98831.63;5030359;28;20053;-78
2022/05/21 05:02:05;;;;;;;3.22;1.80;;;;;;;11.28;43.20;98828.09;5012326;28;19960;-76
2022/05/21 05:04:31;;;;;;;;;;;;;;;11.39;43.14;98838.25;5014060;28;20050;-78
2022/05/21 05:06:57;;;;;;;4.82;2.22;;;;;;;11.40;43.51;98837.34;5013425;28;20049;-79
2022/05/21 05:09:23;;;;;;;;;;;;;;;11.52;43.47;98831.91;5031734;28;20049;-78
2022/05/21 05:11:51;;;;;;;9.90;1.80;;;;;;;11.49;43.50;98824.16;5030236;28;19913;-78
2022/05/21 05:14:18;;;;;;;7.25;1.90;;;;;;;11.58;43.34;98826.56;5031043;28;20111;-78
2022/05/21 05:16:43;;;;;;;3.78;1.80;;;;;;;11.70;42.95;98828.91;5031349;28;20076;-77
2022/05/21 05:19:12;;;;;;;;;;;;;;;11.79;43.85;98827.00;5013858;28;20139;-78
2022/05/21 05:21:38;;;;;;;5.25;1.85;;;;;;;11.78;43.50;98818.38;5030100;28;19924;-78
2022/05/21 05:24:03;;;;;;;;;;;;;;;11.92;42.88;98815.47;5030220;28;20045;-77
2022/05/21 05:26:29;;;;;;;5.72;2.00;;;;;;;11.91;43.04;98813.75;5030831;28;20334;-78
2022/05/21 05:28:55;;;;;;;;;;;;;;;12.02;42.96;98816.97;5030325;28;20492;-76
2022/05/21 05:31:20;;;;;;;3.88;1.80;;;;;;;12.08;43.42;98811.63;5030093;28;19912;-76
2022/05/21 05:33:46;;;;;;;;;;;;;;;12.15;43.51;98818.41;5013850;28;20049;-77
2022/05/21 05:36:11;;;;;;;4.32;2.08;;;;;;;12.14;43.07;98805.41;5030692;28;20343;-81
2022/05/21 05:38:40;;;;;;;4.20;1.85;;;;;;;12.22;42.90;98811.28;4998195;28;20041;-77
2022/05/21 05:41:06;;;;;;;;;;;;;;;12.34;43.02;98799.75;4983199;28;20045;-78
2022/05/21 05:43:31;;;;;;;5.72;1.83;;;;;;;12.35;42.87;98793.63;5031265;28;20799;-78
2022/05/21 05:45:58;;;;;;;;;;;;;;;12.51;43.02;98794.97;5033940;28;20076;-80
2022/05/21 05:48:25;;;;;;;4.07;1.60;;;;;;;12.47;43.34;98790.75;5016952;28;19916;-77
2022/05/21 05:50:53;;;;;;;8.73;2.40;;;;;;;12.52;42.93;98795.81;5017797;28;20112;-78
2022/05/21 05:53:19;;;;;;;;;;;;;;;12.73;42.59;98790.88;4998199;28;20136;-78
2022/05/21 05:55:44;;;;;;;6.45;1.85;;;;;;;12.79;42.53;98791.66;5046485;28;20386;-77
2022/05/21 06:00:54;;;;;;;4.05;1.70;;;;;;;12.93;42.44;98779.09;5039436;28;19921;-78
2022/05/21 06:03:20;;;;;;;;;;;;;;;13.07;42.14;98783.94;5035467;28;20121;-78
2022/05/21 06:05:47;;;;;;;3.87;1.63;;;;;;;12.94;43.01;98779.06;5019595;28;19917;-78
2022/05/21 06:08:13;;;;;;;4.82;1.80;;;;;;;12.77;42.91;98764.78;5017364;28;20123;-78
2022/05/21 06:10:40;;;;;;;4.38;1.70;;;;;;;12.80;42.96;98772.53;5033506;28;20045;-78
2022/05/21 06:13:07;;;;;;;10.98;5.80;;;;;;;12.90;43.07;98763.56;5033385;28;20120;-78
2022/05/21 06:15:32;;;;;;;;;;;;;;;13.12;42.64;98764.66;5022188;28;20042;-78
2022/05/21 06:17:58;;;;;;;5.43;2.10;;;;;;;13.07;43.09;98763.09;5030708;28;19919;-79
2022/05/21 06:20:26;;;;;;;11.38;6.00;;;;;;;13.03;43.35;98751.91;5017117;28;20057;-76
2022/05/21 06:22:52;;;;;;;11.13;6.22;;;;;;;13.06;43.15;98754.44;5033015;28;20049;-77
2022/05/21 06:25:18;;;;;;;;;;;;;;;13.15;43.49;98750.72;5033425;28;20048;-77
2022/05/21 06:27:48;;;;;;;7.70;2.10;;;;;;;13.09;43.39;98740.47;5034828;28;19990;-77
2022/05/21 06:30:14;;;;;;;6.00;2.00;;;;;;;13.16;43.70;98748.06;4997545;28;20401;-79
2022/05/21 06:32:40;;;;;;;5.95;2.70;;;;;;;13.30;43.53;98741.63;5037841;28;20373;-78
2022/05/21 06:35:06;;;;;;;;;;;;;;;13.43;43.12;98736.00;5031693;28;20146;-78
2022/05/21 06:37:31;;;;;;;5.78;1.80;;;;;;;13.42;43.25;98731.69;5033326;28;19962;-78
2022/05/21 06:39:57;;;;;;;;;;;;;;;13.47;43.29;98728.94;5032845;28;20516;-77
2022/05/21 06:42:22;;;;;;;4.63;1.73;;;;;;;13.54;43.42;98727.84;5034234;28;19943;-77
2022/05/21 06:44:50;;;;;;;4.38;1.73;;;;;;;13.57;43.61;98729.53;5033192;28;20040;-78
2022/05/21 06:47:16;;;;;;;4.90;1.45;;;;;;;13.64;43.34;98726.66;5000167;28;20049;-79
2022/05/21 06:49:42;;;;;;;;;;;;;;;13.72;43.29;98724.66;5032348;28;20049;-78
2022/05/21 06:52:08;;;;;;;5.45;1.73;;;;;;;13.84;42.43;98730.41;5033008;28;20273;-78
2022/05/21 06:54:34;;;;;;;5.63;1.73;;;;;;;14.02;42.23;98726.31;5032919;28;20041;-78
2022/05/21 06:57:00;;;;;;;;;;;;;;;14.22;41.92;98727.38;5033036;28;20392;-79
2022/05/21 06:59:26;;;;;;;3.30;1.30;;;;;;;14.47;41.61;98714.31;5032633;28;19938;-79
2022/05/21 07:01:51;;;;;;;3.85;1.52;;;;;;;14.60;41.45;98719.16;5015711;28;20063;-79
2022/05/21 07:07:32;;;;;;;4.43;1.30;;;;;;;14.73;41.03;98707.38;5032673;28;20057;-78
2022/05/21 07:09:47;;;;;;;4.90;1.60;;;;;;;14.99;40.12;98698.59;5032474;28;20041;-78
2022/05/21 07:12:13;;;;;;;;;;;;;;;15.11;40.29;98695.50;5016767;28;20606;-78
2022/05/21 07:14:39;;;;;;;3.95;2.03;;;;;;;15.09;39.92;98696.47;5033971;28;20303;-78
2022/05/21 07:17:04;;;;;;;;;;;;;;;15.20;40.20;98687.31;5032863;28;20048;-78
2022/05/21 07:19:30;;;;;;;7.32;3.72;;;;;;;15.33;40.28;98692.06;5034829;28;19967;-79
2022/05/21 07:21:55;;;;;;;8.32;4.85;;;;;;;15.50;39.91;98689.66;5033368;28;20037;-79
2022/05/21 07:24:23;;;;;;;5.60;2.30;;;;;;;15.59;40.03;98689.28;4999898;28;20037;-78
2022/05/21 07:26:49;;;;;;;10.43;1.85;;;;;;;15.67;39.88;98682.03;5032405;28;20033;-78
2022/05/21 07:29:14;;;;;;;5.88;1.50;;;;;;;15.69;39.79;98674.97;5032331;28;20041;-78
2022/05/21 07:31:40;;;;;;;;;;;;;;;15.84;39.61;98683.94;5016078;28;20940;-78
2022/05/21 07:34:09;;;;;;;3.72;1.60;;;;;;;15.75;39.55;98669.47;5032179;28;20343;-79
2022/05/21 07:36:34;;;;;;;4.38;1.45;;;;;;;15.67;39.80;98655.03;5016397;28;20037;-78
2022/05/21 07:39:00;;;;;;;4.53;1.50;;;;;;;15.64;39.60;98650.75;5007006;28;20448;-78
2022/05/21 07:41:26;;;;;;;7.30;1.67;;;;;;;15.66;39.96;98651.53;5023327;28;20405;-79
2022/05/21 07:43:52;;;;;;;2.47;1.20;;;;;;;15.75;40.26;98643.31;5033380;28;20509;-79
2022/05/21 07:46:18;;;;;;;2.33;1.30;;;;;;;15.84;40.43;98649.09;5033106;28;20091;-78
2022/05/21 07:48:43;;;;;;;4.10;1.48;;;;;;;16.07;39.73;98643.72;4998106;28;20052;-78
2022/05/21 07:51:09;;;;;;;5.97;2.05;;;;;;;16.18;39.69;98653.75;5032754;28;20132;-80
2022/05/21 07:53:36;;;;;;;;;;;;;;;16.33;39.92;98655.72;5032283;28;20063;-77
2022/05/21 07:56:02;;;;;;;;;;;;;;;16.60;38.79;98653.66;5033171;28;20366;-78
2022/05/21 07:58:28;;;;;;;7.00;1.53;;;;;;;16.74;38.48;98656.53;5031492;28;19948;-78
2022/05/21 08:00:55;;;;;;;3.10;1.48;;;;;;;16.79;38.05;98639.75;5032452;28;20171;-78
2022/05/21 08:03:23;;;;;;;5.72;1.58;;;;;;;16.79;38.06;98655.47;5011578;28;20045;-78
2022/05/21 08:05:49;;;;;;;5.75;1.40;;;;;;;16.62;38.47;98649.19;5030094;28;20094;-78
2022/05/21 08:08:14;;;;;;;5.68;1.60;;;;;;;16.44;38.57;98652.59;5007745;28;20061;-80
2022/05/21 08:10:42;;;;;;;4.28;1.35;;;;;;;16.22;38.92;98653.56;5026595;28;20037;-78
2022/05/21 08:13:09;;;;;;;6.40;1.40;;;;;;;15.97;39.12;98647.66;4995499;28;20065;-79
2022/05/21 08:15:35;;;;;;;2.78;1.80;;;;;;;15.88;39.77;98641.06;5012291;28;20116;-79
2022/05/21 08:18:01;;;;;;;10.38;5.72;;;;;;;15.83;39.74;98635.16;5030381;28;20124;-79
2022/05/21 08:20:28;;;;;;;4.97;1.80;;;;;;;15.80;39.53;98637.91;5031555;28;20029;-78
2022/05/21 08:28:22;;;;;;;6.05;1.60;;;;;;;15.48;40.25;98636.56;5032437;28;20045;-79
2022/05/21 08:30:48;;;;;;;7.43;2.58;;;;;;;15.40;40.50;98625.59;5031402;28;20029;-80
2022/05/21 08:33:15;;;;;;;7.80;1.90;;;;;;;15.35;40.91;98638.84;5025154;28;20123;-78
2022/05/21 08:35:41;;;;;;;2.38;1.40;;;;;;;15.37;40.36;98621.31;4998276;28;20187;-77
2022/05/21 08:38:07;;;;;;;3.30;1.45;;;;;;;15.38;40.81;98617.78;5014210;28;20045;-80
2022/05/21 08:40:49;;;;;;;5.30;1.55;;;;;;;15.45;40.85;98619.25;5027457;28;20459;-78
2022/05/21 08:43:24;;;;;;;5.95;1.90;;;;;;;15.45;41.00;98623.66;5026052;28;20045;-80
2022/05/21 08:45:53;;;;;;;8.88;1.80;;;;;;;15.46;40.92;98627.94;5018229;28;20119;-77
2022/05/21 08:48:19;;;;;;;8.05;1.73;;;;;;;15.33;40.83;98608.44;5032586;28;20112;-77
2022/05/21 08:50:47;;;;;;;12.75;2.10;;;;;;;15.32;40.99;98617.22;5014383;28;20468;-79
2022/05/21 08:53:18;;;;;;;10.73;1.83;;;;;;;15.31;40.94;98607.69;5015034;28;20465;-79
2022/05/21 08:55:47;;;;;;;7.53;1.88;;;;;;;15.38;40.33;98611.72;5026761;28;20041;-79
2022/05/21 08:58:21;;;;;;;3.92;1.60;;;;;;;15.52;40.78;98620.69;5032253;28;20090;-81
2022/05/21 09:00:48;;;;;;;5.55;1.60;;;;;;;15.62;39.92;98612.47;5014329;28;20140;-78
2022/05/21 09:03:17;;;;;;;4.07;1.70;;;;;;;15.75;40.15;98609.31;5032506;28;20061;-77
2022/05/21 09:05:45;;;;;;;5.43;2.88;;;;;;;15.70;40.76;98607.81;5030991;28;20444;-78
2022/05/21 09:08:11;;;;;;;3.58;1.60;;;;;;;15.62;40.46;98592.41;5031090;28;20519;-78
2022/05/21 09:10:49;;;;;;;3.38;1.50;;;;;;;15.65;40.51;98604.56;5032009;28;20045;-78
2022/05/21 09:13:33;;;;;;;5.18;1.70;;;;;;;15.66;40.30;98591.41;5032161;28;20139;-79
2022/05/21 09:18:43;;;;;;;3.35;1.70;;;;;;;15.79;39.57;98596.13;5036153;28;20095;-78
2022/05/21 09:21:21;;;;;;;4.75;1.63;;;;;;;15.70;39.97;98592.97;5034511;28;20553;-79
2022/05/21 09:23:47;;;;;;;2.63;1.52;;;;;;;15.67;40.04;98587.91;5020321;28;20045;-79
2022/05/21 09:26:13;;;;;;;5.43;1.50;;;;;;;15.70;40.22;98592.13;5035071;28;20042;-82
2022/05/21 09:28:41;;;;;;;3.53;1.67;;;;;;;15.90;39.77;98583.47;5036051;28;20052;-80
2022/05/21 09:31:07;;;;;;;2.55;1.55;;;;;;;15.96;39.55;98567.50;5035725;28;20116;-79
2022/05/21 09:33:35;;;;;;;4.03;1.50;;;;;;;16.01;39.55;98576.84;5018594;28;20041;-80
2022/05/21 09:36:01;;;;;;;3.50;1.70;;;;;;;16.02;39.55;98569.84;5034828;28;20033;-78
2022/05/21 09:38:30;;;;;;;6.82;2.03;;;;;;;16.11;39.33;98566.81;5034922;28;20091;-80
2022/05/21 09:41:28;;;;;;;4.43;1.95;;;;;;;16.14;39.76;98571.94;5024353;28;20050;-79
2022/05/21 09:46:44;;;;;;;5.07;3.13;;;;;;;15.92;40.03;98576.41;5035028;28;20497;-80
2022/05/21 09:49:26;;;;;;;7.88;2.53;;;;;;;15.94;39.57;98577.16;5021784;28;20033;-81
2022/05/21 09:51:54;;;;;;;3.22;2.30;;;;;;;16.07;39.40;98567.88;5014808;28;20069;-78
2022/05/21 09:54:21;;;;;;;4.30;1.95;;;;;;;16.11;38.70;98572.06;5035538;28;20033;-79
2022/05/21 09:56:52;;;;;;;4.22;1.80;;;;;;;16.05;39.22;98567.09;5017757;28;20063;-79
2022/05/21 09:59:20;;;;;;;4.47;1.98;;;;;;;16.07;39.39;98565.25;5035366;28;20048;-79
2022/05/21 10:01:53;;;;;;;4.60;2.63;;;;;;;16.08;38.90;98569.59;5005585;28;20133;-80
2022/05/21 10:04:45;;;;;;;7.82;3.28;;;;;;;16.01;39.43;98562.91;5033599;28;20033;-79
2022/05/21 10:10:58;;;;;;;4.05;2.10;;;;;;;16.10;39.37;98562.50;5014567;28;20061;-80
2022/05/21 10:12:49;;;;;;;4.72;2.10;;;;;;;15.93;39.43;98563.25;4990808;28;20064;-81
2022/05/21 10:15:19;;;;;;;5.75;2.38;;;;;;;15.94;39.12;98564.09;5001798;28;20480;-78
2022/05/21 10:17:48;;;;;;;4.45;2.40;;;;;;;15.90;38.95;98565.16;5017437;28;20515;-80
2022/05/21 10:20:13;;;;;;;4.78;1.90;;;;;;;15.94;38.17;98554.50;5033855;28;20056;-79
2022/05/21 10:22:50;;;;;;;8.50;2.90;;;;;;;16.09;38.35;98562.59;5034568;28;20041;-81
2022/05/21 10:25:21;;;;;;;4.15;1.80;;;;;;;16.14;37.51;98564.09;5012900;28;20042;-79
2022/05/21 10:27:55;;;;;;;4.80;1.73;;;;;;;16.10;37.75;98557.28;5017186;28;20063;-79
2022/05/21 10:30:49;;;;;;;3.83;2.13;;;;;;;16.06;37.82;98562.72;5034847;28;20045;-81
2022/05/21 10:33:23;;;;;;;4.82;2.20;;;;;;;16.06;37.46;98552.25;5033386;28;20037;-80
2022/05/21 10:35:59;;;;;;;5.07;2.20;;;;;;;16.04;36.46;98549.72;5021187;28;20131;-80
2022/05/21 10:38:44;;;;;;;6.47;1.73;;;;;;;16.03;36.41;98542.75;5017015;28;20040;-80
2022/05/21 10:41:29;;;;;;;8.82;2.00;;;;;;;15.96;36.15;98544.81;5033763;28;20053;-82
2022/05/21 10:44:00;;;;;;;13.48;2.45;;;;;;;15.93;36.36;98541.47;5013726;28;20126;-79
2022/05/21 10:46:52;;;;;;;21.42;2.30;;;;;;;15.91;36.81;98543.31;5025415;28;20084;-79
2022/05/21 10:49:29;;;;;;;8.13;2.15;;;;;;;15.80;36.57;98550.75;5033820;28;20107;-80
2022/05/21 10:52:21;;;;;;;8.27;1.90;;;;;;;15.74;36.46;98552.72;5034705;28;20037;-79
2022/05/21 10:55:01;;;;;;;16.10;2.67;;;;;;;15.66;36.52;98539.13;5026337;28;20508;-80
2022/05/21 10:57:50;;;;;;;9.77;2.97;;;;;;;15.68;36.85;98542.53;5033518;28;20496;-79
2022/05/21 11:00:38;;;;;;;13.13;2.45;;;;;;;15.75;36.88;98535.25;5032989;28;20106;-79
2022/05/21 11:03:25;;;;;;;11.95;2.25;;;;;;;15.86;36.78;98534.81;5017112;28;20559;-80
2022/05/21 11:06:36;;;;;;;21.40;2.80;;;;;;;15.86;36.83;98526.97;5033087;28;20045;-78
2022/05/21 11:09:35;;;;;;;15.20;2.75;;;;;;;15.66;36.94;98528.66;5021966;28;20078;-80
2022/05/21 11:12:06;;;;;;;9.60;3.70;;;;;;;15.69;36.63;98520.69;5033733;28;20033;-79
2022/05/21 11:14:39;;;;;;;6.88;2.00;;;;;;;15.73;36.85;98516.19;5032455;28;20049;-80
2022/05/21 11:17:07;;;;;;;17.98;2.47;;;;;;;15.77;36.41;98516.91;5012771;28;20041;-80
2022/05/21 11:20:05;;;;;;;20.60;2.78;;;;;;;15.82;35.66;98512.34;5013039;28;20040;-80
2022/05/21 11:22:57;;;;;;;17.23;2.80;;;;;;;15.85;35.32;98502.59;5013832;28;20042;-78
2022/05/21 11:26:01;;;;;;;14.32;2.25;;;;;;;15.84;35.32;98515.72;5013286;28;20513;-79
2022/05/21 11:28:53;;;;;;;14.20;2.53;;;;;;;15.68;36.03;98516.41;5013204;28;20412;-81
2022/05/21 11:39:43;;;;;;;5.20;1.90;;;;;;;15.49;35.89;98499.78;5012714;28;20168;-79
2022/05/21 11:42:14;;;;;;;4.28;2.40;;;;;;;15.43;35.93;98506.09;5033555;28;20036;-80
2022/05/21 11:44:55;;;;;;;4.90;2.10;;;;;;;15.34;36.41;98496.03;5016230;28;20132;-79
2022/05/21 11:47:21;;;;;;;4.90;2.47;;;;;;;15.43;36.16;98490.41;5016195;28;20043;-80
2022/05/21 11:49:56;;;;;;;4.72;2.30;;;;;;;15.36;36.45;98498.59;5033106;28;20033;-78
2022/05/21 11:52:27;;;;;;;6.90;2.55;;;;;;;15.25;37.21;98488.56;5032950;28;20128;-83
2022/05/21 11:54:53;;;;;;;5.63;2.20;;;;;;;15.25;37.08;98491.19;5032177;28;20699;-79
2022/05/21 11:57:30;;;;;;;3.65;2.08;;;;;;;15.19;36.55;98497.50;5032287;28;20112;-84
2022/05/21 11:59:56;;;;;;;8.18;2.50;;;;;;;15.14;36.86;98486.41;5032366;28;20045;-78
2022/05/21 12:02:23;;;;;;;7.15;2.30;;;;;;;15.17;37.09;98486.28;5015660;28;20064;-79
2022/05/21 12:04:51;;;;;;;5.40;2.22;;;;;;;15.24;37.24;98479.03;5033090;28;20415;-80
2022/05/21 12:07:46;;;;;;;4.85;2.30;;;;;;;15.30;36.96;98483.16;5031885;28;20045;-78
2022/05/21 12:10:15;;;;;;;4.10;2.50;;;;;;;15.21;37.30;98481.75;5033033;28;20120;-78
2022/05/21 12:13:03;;;;;;;5.32;2.72;;;;;;;15.16;37.26;98481.97;4999863;28;20159;-78
2022/05/21 12:15:44;;;;;;;5.95;2.60;;;;;;;15.14;37.28;98478.56;5033512;28;20473;-84
2022/05/21 12:18:31;;;;;;;5.47;2.15;;;;;;;15.06;37.23;98469.34;5015505;28;20407;-79
2022/05/21 12:20:57;;;;;;;8.02;2.17;;;;;;;14.97;37.20;98450.53;5032652;28;20052;-80
2022/05/21 12:23:26;;;;;;;8.73;2.20;;;;;;;15.07;37.10;98460.59;5007716;28;20465;-80
2022/05/21 12:25:53;;;;;;;5.68;2.47;;;;;;;15.06;37.18;98459.75;5012532;28;20144;-79
2022/05/21 12:28:19;;;;;;;8.23;2.97;;;;;;;15.17;37.10;98459.31;5012319;28;20036;-80
2022/05/21 12:30:45;;;;;;;8.80;3.55;;;;;;;15.24;36.91;98456.38;5024383;28;20448;-79
2022/05/21 12:33:23;;;;;;;7.43;4.28;;;;;;;15.19;36.91;98455.72;5032743;28;20034;-79